sensor_id;sensor_type;location;lat;lon;timestamp;P1;durP1;ratioP1;P2;durP2;ratioP2
4585;SDS011;2305;50.118;8.952;2023-03-07T00:01:05;24.20;;;13.37;;
4585;SDS011;2305;50.118;8.952;2023-03-07T00:03:34;19.27;;;10.83;;
4585;SDS011;2305;50.118;8.952;2023-03-07T00:06:07;21.47;;;13.70;;
4585;SDS011;2305;50.118;8.952;2023-03-07T00:08:37;24.77;;;12.90;;
4585;SDS011;2305;50.118;8.952;2023-03-07T00:11:06;22.20;;;13.97;;
4585;SDS011;2305;50.118;8.952;2023-03-07T00:13:37;23.37;;;13.30;;
4585;SDS011;2305;50.118;8.952;2023-03-07T00:16:09;24.30;;;13.97;;
4585;SDS011;2305;50.118;8.952;2023-03-07T00:18:40;25.13;;;14.80;;
4585;SDS011;2305;50.118;8.952;2023-03-07T00:21:10;22.60;;;12.63;;
4585;SDS011;2305;50.118;8.952;2023-03-07T00:23:40;26.10;;;14.43;;
4585;SDS011;2305;50.118;8.952;2023-03-07T00:26:14;27.47;;;14.40;;
4585;SDS011;2305;50.118;8.952;2023-03-07T00:28:47;24.50;;;13.90;;
4585;SDS011;2305;50.118;8.952;2023-03-07T00:31:17;26.10;;;14.07;;
4585;SDS011;2305;50.118;8.952;2023-03-07T00:33:47;23.57;;;14.17;;
4585;SDS011;2305;50.118;8.952;2023-03-07T00:36:15;29.53;;;15.47;;
4585;SDS011;2305;50.118;8.952;2023-03-07T00:38:45;24.50;;;13.80;;
4585;SDS011;2305;50.118;8.952;2023-03-07T00:41:15;23.20;;;12.80;;
4585;SDS011;2305;50.118;8.952;2023-03-07T00:43:49;34.50;;;15.23;;
4585;SDS011;2305;50.118;8.952;2023-03-07T00:46:19;25.30;;;14.27;;
4585;SDS011;2305;50.118;8.952;2023-03-07T00:48:50;25.23;;;14.53;;
4585;SDS011;2305;50.118;8.952;2023-03-07T00:51:21;28.30;;;14.57;;
4585;SDS011;2305;50.118;8.952;2023-03-07T00:53:51;25.13;;;14.60;;
4585;SDS011;2305;50.118;8.952;2023-03-07T00:56:20;33.90;;;15.50;;
4585;SDS011;2305;50.118;8.952;2023-03-07T00:58:54;28.07;;;15.40;;
4585;SDS011;2305;50.118;8.952;2023-03-07T01:01:29;28.20;;;14.83;;
4585;SDS011;2305;50.118;8.952;2023-03-07T01:03:58;25.70;;;15.63;;
4585;SDS011;2305;50.118;8.952;2023-03-07T01:06:28;28.37;;;15.33;;
4585;SDS011;2305;50.118;8.952;2023-03-07T01:08:59;26.50;;;14.27;;
4585;SDS011;2305;50.118;8.952;2023-03-07T01:11:33;25.80;;;15.00;;
4585;SDS011;2305;50.118;8.952;2023-03-07T01:14:08;31.57;;;16.17;;
4585;SDS011;2305;50.118;8.952;2023-03-07T01:16:38;24.10;;;14.00;;
4585;SDS011;2305;50.118;8.952;2023-03-07T01:19:10;28.67;;;16.20;;
4585;SDS011;2305;50.118;8.952;2023-03-07T01:21:40;25.47;;;14.47;;
4585;SDS011;2305;50.118;8.952;2023-03-07T01:24:11;29.53;;;15.27;;
4585;SDS011;2305;50.118;8.952;2023-03-07T01:26:44;28.50;;;15.27;;
4585;SDS011;2305;50.118;8.952;2023-03-07T01:29:15;27.67;;;15.10;;
4585;SDS011;2305;50.118;8.952;2023-03-07T01:31:54;30.10;;;16.30;;
4585;SDS011;2305;50.118;8.952;2023-03-07T01:34:25;31.13;;;16.37;;
4585;SDS011;2305;50.118;8.952;2023-03-07T01:36:54;27.70;;;16.20;;
4585;SDS011;2305;50.118;8.952;2023-03-07T01:39:23;26.20;;;14.40;;
4585;SDS011;2305;50.118;8.952;2023-03-07T01:42:01;27.70;;;15.80;;
4585;SDS011;2305;50.118;8.952;2023-03-07T01:47:37;35.70;;;16.00;;
4585;SDS011;2305;50.118;8.952;2023-03-07T01:50:06;29.57;;;15.40;;
4585;SDS011;2305;50.118;8.952;2023-03-07T01:52:44;25.63;;;14.37;;
4585;SDS011;2305;50.118;8.952;2023-03-07T01:55:15;25.60;;;14.17;;
4585;SDS011;2305;50.118;8.952;2023-03-07T01:57:48;27.77;;;14.87;;
4585;SDS011;2305;50.118;8.952;2023-03-07T02:00:23;29.33;;;15.50;;
4585;SDS011;2305;50.118;8.952;2023-03-07T02:02:58;25.97;;;14.70;;
4585;SDS011;2305;50.118;8.952;2023-03-07T02:05:36;25.20;;;14.70;;
4585;SDS011;2305;50.118;8.952;2023-03-07T02:08:08;29.73;;;15.13;;
4585;SDS011;2305;50.118;8.952;2023-03-07T02:10:39;31.50;;;14.83;;
4585;SDS011;2305;50.118;8.952;2023-03-07T02:13:09;25.03;;;15.63;;
4585;SDS011;2305;50.118;8.952;2023-03-07T02:15:39;27.77;;;14.73;;
4585;SDS011;2305;50.118;8.952;2023-03-07T02:18:09;26.83;;;15.27;;
4585;SDS011;2305;50.118;8.952;2023-03-07T02:20:45;26.27;;;14.60;;
4585;SDS011;2305;50.118;8.952;2023-03-07T02:23:19;31.00;;;15.13;;
4585;SDS011;2305;50.118;8.952;2023-03-07T02:26:00;26.03;;;14.40;;
4585;SDS011;2305;50.118;8.952;2023-03-07T02:28:37;29.97;;;15.50;;
4585;SDS011;2305;50.118;8.952;2023-03-07T02:31:10;28.03;;;15.53;;
4585;SDS011;2305;50.118;8.952;2023-03-07T02:33:41;25.23;;;14.60;;
4585;SDS011;2305;50.118;8.952;2023-03-07T02:36:11;26.47;;;14.07;;
4585;SDS011;2305;50.118;8.952;2023-03-07T02:38:55;25.00;;;14.80;;
4585;SDS011;2305;50.118;8.952;2023-03-07T02:41:29;28.77;;;13.90;;
4585;SDS011;2305;50.118;8.952;2023-03-07T02:44:08;35.70;;;15.70;;
4585;SDS011;2305;50.118;8.952;2023-03-07T02:46:36;27.57;;;14.50;;
4585;SDS011;2305;50.118;8.952;2023-03-07T02:49:05;24.80;;;15.60;;
4585;SDS011;2305;50.118;8.952;2023-03-07T02:51:41;25.70;;;14.90;;
4585;SDS011;2305;50.118;8.952;2023-03-07T02:54:09;27.20;;;15.40;;
4585;SDS011;2305;50.118;8.952;2023-03-07T02:56:40;32.20;;;15.30;;
4585;SDS011;2305;50.118;8.952;2023-03-07T02:59:12;27.47;;;14.93;;
4585;SDS011;2305;50.118;8.952;2023-03-07T03:01:40;24.60;;;14.20;;
4585;SDS011;2305;50.118;8.952;2023-03-07T03:04:08;27.53;;;14.23;;
4585;SDS011;2305;50.118;8.952;2023-03-07T03:06:37;23.90;;;13.33;;
4585;SDS011;2305;50.118;8.952;2023-03-07T03:09:08;21.83;;;12.00;;
4585;SDS011;2305;50.118;8.952;2023-03-07T03:11:42;24.77;;;14.00;;
4585;SDS011;2305;50.118;8.952;2023-03-07T03:14:15;26.20;;;14.20;;
4585;SDS011;2305;50.118;8.952;2023-03-07T03:16:43;25.63;;;13.97;;
4585;SDS011;2305;50.118;8.952;2023-03-07T03:19:12;28.10;;;14.90;;
4585;SDS011;2305;50.118;8.952;2023-03-07T03:21:41;30.57;;;15.47;;
4585;SDS011;2305;50.118;8.952;2023-03-07T03:24:14;32.03;;;13.73;;
4585;SDS011;2305;50.118;8.952;2023-03-07T03:26:45;28.80;;;15.27;;
4585;SDS011;2305;50.118;8.952;2023-03-07T03:29:17;24.13;;;14.70;;
4585;SDS011;2305;50.118;8.952;2023-03-07T03:31:47;28.23;;;13.93;;
4585;SDS011;2305;50.118;8.952;2023-03-07T03:34:16;23.93;;;14.03;;
4585;SDS011;2305;50.118;8.952;2023-03-07T03:36:45;30.33;;;16.70;;
4585;SDS011;2305;50.118;8.952;2023-03-07T03:39:14;26.03;;;14.97;;
4585;SDS011;2305;50.118;8.952;2023-03-07T03:41:46;24.40;;;14.37;;
4585;SDS011;2305;50.118;8.952;2023-03-07T03:44:21;23.10;;;13.60;;
4585;SDS011;2305;50.118;8.952;2023-03-07T03:46:49;22.13;;;13.60;;
4585;SDS011;2305;50.118;8.952;2023-03-07T03:49:20;25.27;;;13.30;;
4585;SDS011;2305;50.118;8.952;2023-03-07T03:51:50;25.00;;;14.70;;
4585;SDS011;2305;50.118;8.952;2023-03-07T03:54:18;27.57;;;14.83;;
4585;SDS011;2305;50.118;8.952;2023-03-07T03:56:49;26.33;;;14.73;;
4585;SDS011;2305;50.118;8.952;2023-03-07T03:59:17;22.87;;;12.23;;
4585;SDS011;2305;50.118;8.952;2023-03-07T04:01:48;22.47;;;13.47;;
4585;SDS011;2305;50.118;8.952;2023-03-07T04:04:17;27.90;;;13.07;;
4585;SDS011;2305;50.118;8.952;2023-03-07T04:06:46;22.07;;;12.40;;
4585;SDS011;2305;50.118;8.952;2023-03-07T04:09:15;20.70;;;12.60;;
4585;SDS011;2305;50.118;8.952;2023-03-07T04:11:46;21.70;;;12.00;;
4585;SDS011;2305;50.118;8.952;2023-03-07T04:14:15;21.07;;;11.40;;
4585;SDS011;2305;50.118;8.952;2023-03-07T04:16:44;20.40;;;12.20;;
4585;SDS011;2305;50.118;8.952;2023-03-07T04:19:15;21.43;;;12.23;;
4585;SDS011;2305;50.118;8.952;2023-03-07T04:21:43;21.20;;;12.17;;
4585;SDS011;2305;50.118;8.952;2023-03-07T04:24:14;20.33;;;12.43;;
4585;SDS011;2305;50.118;8.952;2023-03-07T04:26:43;23.97;;;11.53;;
4585;SDS011;2305;50.118;8.952;2023-03-07T04:29:10;18.00;;;12.10;;
4585;SDS011;2305;50.118;8.952;2023-03-07T04:31:42;21.13;;;10.67;;
4585;SDS011;2305;50.118;8.952;2023-03-07T04:34:10;25.20;;;11.90;;
4585;SDS011;2305;50.118;8.952;2023-03-07T04:36:41;19.17;;;11.33;;
4585;SDS011;2305;50.118;8.952;2023-03-07T04:39:11;16.20;;;10.47;;
4585;SDS011;2305;50.118;8.952;2023-03-07T04:41:39;20.13;;;11.00;;
4585;SDS011;2305;50.118;8.952;2023-03-07T04:44:18;17.30;;;11.17;;
4585;SDS011;2305;50.118;8.952;2023-03-07T04:46:46;19.50;;;11.50;;
4585;SDS011;2305;50.118;8.952;2023-03-07T04:49:15;18.67;;;11.63;;
4585;SDS011;2305;50.118;8.952;2023-03-07T04:51:48;15.70;;;10.53;;
4585;SDS011;2305;50.118;8.952;2023-03-07T04:54:19;16.50;;;10.87;;
4585;SDS011;2305;50.118;8.952;2023-03-07T04:56:48;17.40;;;11.13;;
4585;SDS011;2305;50.118;8.952;2023-03-07T04:59:16;19.20;;;12.40;;
4585;SDS011;2305;50.118;8.952;2023-03-07T05:01:47;16.17;;;9.50;;
4585;SDS011;2305;50.118;8.952;2023-03-07T05:04:15;17.93;;;10.60;;
4585;SDS011;2305;50.118;8.952;2023-03-07T05:06:43;18.53;;;11.30;;
4585;SDS011;2305;50.118;8.952;2023-03-07T05:09:13;21.77;;;12.50;;
4585;SDS011;2305;50.118;8.952;2023-03-07T05:11:44;15.97;;;11.00;;
4585;SDS011;2305;50.118;8.952;2023-03-07T05:14:12;20.17;;;11.47;;
4585;SDS011;2305;50.118;8.952;2023-03-07T05:16:40;22.47;;;11.77;;
4585;SDS011;2305;50.118;8.952;2023-03-07T05:19:09;17.77;;;10.97;;
4585;SDS011;2305;50.118;8.952;2023-03-07T05:21:39;21.50;;;13.37;;
4585;SDS011;2305;50.118;8.952;2023-03-07T05:24:10;19.53;;;12.13;;
4585;SDS011;2305;50.118;8.952;2023-03-07T05:26:40;20.73;;;11.67;;
4585;SDS011;2305;50.118;8.952;2023-03-07T05:29:09;19.10;;;11.83;;
4585;SDS011;2305;50.118;8.952;2023-03-07T05:31:41;21.20;;;12.40;;
4585;SDS011;2305;50.118;8.952;2023-03-07T05:34:09;21.30;;;12.23;;
4585;SDS011;2305;50.118;8.952;2023-03-07T05:36:39;17.73;;;11.60;;
4585;SDS011;2305;50.118;8.952;2023-03-07T05:39:08;20.00;;;11.77;;
4585;SDS011;2305;50.118;8.952;2023-03-07T05:41:37;16.30;;;10.50;;
4585;SDS011;2305;50.118;8.952;2023-03-07T05:44:09;18.77;;;11.23;;
4585;SDS011;2305;50.118;8.952;2023-03-07T05:46:38;16.27;;;11.07;;
4585;SDS011;2305;50.118;8.952;2023-03-07T05:49:08;20.53;;;11.47;;
4585;SDS011;2305;50.118;8.952;2023-03-07T05:51:37;18.87;;;12.67;;
4585;SDS011;2305;50.118;8.952;2023-03-07T05:54:08;18.80;;;11.27;;
4585;SDS011;2305;50.118;8.952;2023-03-07T05:56:41;21.63;;;10.60;;
4585;SDS011;2305;50.118;8.952;2023-03-07T05:59:10;22.30;;;12.10;;
4585;SDS011;2305;50.118;8.952;2023-03-07T06:01:42;23.23;;;10.87;;
4585;SDS011;2305;50.118;8.952;2023-03-07T06:04:23;17.83;;;11.10;;
4585;SDS011;2305;50.118;8.952;2023-03-07T06:07:00;19.63;;;10.00;;
4585;SDS011;2305;50.118;8.952;2023-03-07T06:09:28;23.17;;;10.80;;
4585;SDS011;2305;50.118;8.952;2023-03-07T06:11:59;24.07;;;12.90;;
4585;SDS011;2305;50.118;8.952;2023-03-07T06:14:29;15.77;;;10.13;;
4585;SDS011;2305;50.118;8.952;2023-03-07T06:16:57;21.70;;;11.67;;
4585;SDS011;2305;50.118;8.952;2023-03-07T06:19:27;17.67;;;11.10;;
4585;SDS011;2305;50.118;8.952;2023-03-07T06:21:56;18.30;;;11.70;;
4585;SDS011;2305;50.118;8.952;2023-03-07T06:24:25;19.23;;;11.40;;
4585;SDS011;2305;50.118;8.952;2023-03-07T06:26:54;20.67;;;11.30;;
4585;SDS011;2305;50.118;8.952;2023-03-07T06:29:29;21.30;;;10.73;;
4585;SDS011;2305;50.118;8.952;2023-03-07T06:31:58;19.60;;;12.33;;
4585;SDS011;2305;50.118;8.952;2023-03-07T06:34:26;19.83;;;11.87;;
4585;SDS011;2305;50.118;8.952;2023-03-07T06:36:56;17.73;;;10.40;;
4585;SDS011;2305;50.118;8.952;2023-03-07T06:39:28;19.07;;;11.57;;
4585;SDS011;2305;50.118;8.952;2023-03-07T06:41:58;17.93;;;11.27;;
4585;SDS011;2305;50.118;8.952;2023-03-07T06:44:31;18.70;;;11.00;;
4585;SDS011;2305;50.118;8.952;2023-03-07T06:47:01;20.40;;;11.30;;
4585;SDS011;2305;50.118;8.952;2023-03-07T06:49:29;17.47;;;10.73;;
4585;SDS011;2305;50.118;8.952;2023-03-07T06:51:57;18.10;;;11.37;;
4585;SDS011;2305;50.118;8.952;2023-03-07T06:54:25;21.23;;;11.57;;
4585;SDS011;2305;50.118;8.952;2023-03-07T06:56:54;22.87;;;10.80;;
4585;SDS011;2305;50.118;8.952;2023-03-07T06:59:23;18.13;;;11.33;;
4585;SDS011;2305;50.118;8.952;2023-03-07T07:01:52;20.10;;;12.83;;
4585;SDS011;2305;50.118;8.952;2023-03-07T07:04:21;16.80;;;10.27;;
4585;SDS011;2305;50.118;8.952;2023-03-07T07:06:50;19.40;;;10.80;;
4585;SDS011;2305;50.118;8.952;2023-03-07T07:09:21;17.80;;;9.97;;
4585;SDS011;2305;50.118;8.952;2023-03-07T07:11:49;18.30;;;11.20;;
4585;SDS011;2305;50.118;8.952;2023-03-07T07:14:18;16.57;;;10.70;;
4585;SDS011;2305;50.118;8.952;2023-03-07T07:16:47;18.77;;;11.37;;
4585;SDS011;2305;50.118;8.952;2023-03-07T07:19:17;17.90;;;10.33;;
4585;SDS011;2305;50.118;8.952;2023-03-07T07:21:46;22.60;;;11.20;;
4585;SDS011;2305;50.118;8.952;2023-03-07T07:24:14;20.37;;;10.67;;
4585;SDS011;2305;50.118;8.952;2023-03-07T07:26:44;18.60;;;11.00;;
4585;SDS011;2305;50.118;8.952;2023-03-07T07:29:12;16.37;;;9.60;;
4585;SDS011;2305;50.118;8.952;2023-03-07T07:31:41;16.03;;;9.70;;
4585;SDS011;2305;50.118;8.952;2023-03-07T07:34:09;17.50;;;9.63;;
4585;SDS011;2305;50.118;8.952;2023-03-07T07:36:43;14.97;;;9.00;;
4585;SDS011;2305;50.118;8.952;2023-03-07T07:39:16;18.13;;;10.40;;
4585;SDS011;2305;50.118;8.952;2023-03-07T07:41:45;15.83;;;8.93;;
4585;SDS011;2305;50.118;8.952;2023-03-07T07:44:18;18.30;;;10.40;;
4585;SDS011;2305;50.118;8.952;2023-03-07T07:46:53;16.53;;;10.50;;
4585;SDS011;2305;50.118;8.952;2023-03-07T07:49:23;15.70;;;9.37;;
4585;SDS011;2305;50.118;8.952;2023-03-07T07:51:55;17.50;;;9.30;;
4585;SDS011;2305;50.118;8.952;2023-03-07T07:54:24;15.57;;;10.00;;
4585;SDS011;2305;50.118;8.952;2023-03-07T07:56:52;14.27;;;8.47;;
4585;SDS011;2305;50.118;8.952;2023-03-07T07:59:20;15.10;;;9.37;;
4585;SDS011;2305;50.118;8.952;2023-03-07T08:01:51;17.13;;;9.60;;
4585;SDS011;2305;50.118;8.952;2023-03-07T08:04:20;22.17;;;10.20;;
4585;SDS011;2305;50.118;8.952;2023-03-07T08:06:49;14.80;;;8.87;;
4585;SDS011;2305;50.118;8.952;2023-03-07T08:09:21;15.00;;;10.07;;
4585;SDS011;2305;50.118;8.952;2023-03-07T08:11:51;18.57;;;10.87;;
4585;SDS011;2305;50.118;8.952;2023-03-07T08:14:23;16.57;;;9.87;;
4585;SDS011;2305;50.118;8.952;2023-03-07T08:16:52;15.97;;;9.03;;
4585;SDS011;2305;50.118;8.952;2023-03-07T08:19:20;17.17;;;9.67;;
4585;SDS011;2305;50.118;8.952;2023-03-07T08:21:51;16.40;;;9.70;;
4585;SDS011;2305;50.118;8.952;2023-03-07T08:24:19;16.30;;;10.33;;
4585;SDS011;2305;50.118;8.952;2023-03-07T08:27:05;24.63;;;9.67;;
4585;SDS011;2305;50.118;8.952;2023-03-07T08:29:34;14.80;;;9.10;;
4585;SDS011;2305;50.118;8.952;2023-03-07T08:32:02;14.77;;;9.20;;
4585;SDS011;2305;50.118;8.952;2023-03-07T08:34:31;16.50;;;10.30;;
4585;SDS011;2305;50.118;8.952;2023-03-07T08:37:00;13.97;;;8.90;;
4585;SDS011;2305;50.118;8.952;2023-03-07T08:39:28;14.80;;;9.30;;
4585;SDS011;2305;50.118;8.952;2023-03-07T08:41:57;13.60;;;9.80;;
4585;SDS011;2305;50.118;8.952;2023-03-07T08:44:30;20.77;;;9.67;;
4585;SDS011;2305;50.118;8.952;2023-03-07T08:46:58;15.63;;;8.93;;
4585;SDS011;2305;50.118;8.952;2023-03-07T08:49:26;17.07;;;8.90;;
4585;SDS011;2305;50.118;8.952;2023-03-07T08:51:54;15.47;;;8.93;;
4585;SDS011;2305;50.118;8.952;2023-03-07T08:54:21;15.83;;;9.10;;
4585;SDS011;2305;50.118;8.952;2023-03-07T08:56:52;16.10;;;9.00;;
4585;SDS011;2305;50.118;8.952;2023-03-07T08:59:20;14.27;;;8.77;;
4585;SDS011;2305;50.118;8.952;2023-03-07T09:01:50;14.00;;;8.63;;
4585;SDS011;2305;50.118;8.952;2023-03-07T09:04:18;13.97;;;8.30;;
4585;SDS011;2305;50.118;8.952;2023-03-07T09:06:46;13.30;;;9.10;;
4585;SDS011;2305;50.118;8.952;2023-03-07T09:09:14;11.23;;;7.80;;
4585;SDS011;2305;50.118;8.952;2023-03-07T09:11:42;14.93;;;8.73;;
4585;SDS011;2305;50.118;8.952;2023-03-07T09:14:13;13.80;;;8.13;;
4585;SDS011;2305;50.118;8.952;2023-03-07T09:16:41;12.93;;;8.50;;
4585;SDS011;2305;50.118;8.952;2023-03-07T09:19:11;18.43;;;8.10;;
4585;SDS011;2305;50.118;8.952;2023-03-07T09:21:39;11.73;;;6.77;;
4585;SDS011;2305;50.118;8.952;2023-03-07T09:24:07;12.67;;;8.90;;
4585;SDS011;2305;50.118;8.952;2023-03-07T09:26:35;16.80;;;8.80;;
4585;SDS011;2305;50.118;8.952;2023-03-07T09:29:04;14.80;;;8.47;;
4585;SDS011;2305;50.118;8.952;2023-03-07T09:31:32;12.27;;;7.57;;
4585;SDS011;2305;50.118;8.952;2023-03-07T09:34:00;11.27;;;7.27;;
4585;SDS011;2305;50.118;8.952;2023-03-07T09:36:30;13.27;;;7.57;;
4585;SDS011;2305;50.118;8.952;2023-03-07T09:38:58;18.07;;;8.40;;
4585;SDS011;2305;50.118;8.952;2023-03-07T09:44:35;9.37;;;6.97;;
4585;SDS011;2305;50.118;8.952;2023-03-07T09:47:35;15.70;;;7.73;;
4585;SDS011;2305;50.118;8.952;2023-03-07T09:50:14;13.00;;;7.50;;
4585;SDS011;2305;50.118;8.952;2023-03-07T09:52:48;15.93;;;7.50;;
4585;SDS011;2305;50.118;8.952;2023-03-07T09:55:20;11.00;;;7.30;;
4585;SDS011;2305;50.118;8.952;2023-03-07T09:57:50;11.80;;;7.60;;
4585;SDS011;2305;50.118;8.952;2023-03-07T10:00:25;12.40;;;7.30;;
4585;SDS011;2305;50.118;8.952;2023-03-07T10:02:59;9.97;;;6.40;;
4585;SDS011;2305;50.118;8.952;2023-03-07T10:05:36;12.83;;;6.00;;
4585;SDS011;2305;50.118;8.952;2023-03-07T10:08:08;13.40;;;6.57;;
4585;SDS011;2305;50.118;8.952;2023-03-07T10:10:41;8.73;;;6.07;;
4585;SDS011;2305;50.118;8.952;2023-03-07T10:13:21;10.33;;;6.77;;
4585;SDS011;2305;50.118;8.952;2023-03-07T10:16:00;9.03;;;5.87;;
4585;SDS011;2305;50.118;8.952;2023-03-07T10:18:46;9.47;;;5.87;;
4585;SDS011;2305;50.118;8.952;2023-03-07T10:21:24;8.90;;;6.87;;
4585;SDS011;2305;50.118;8.952;2023-03-07T10:24:09;12.97;;;6.17;;
4585;SDS011;2305;50.118;8.952;2023-03-07T10:26:54;10.00;;;6.70;;
4585;SDS011;2305;50.118;8.952;2023-03-07T10:29:31;8.43;;;6.50;;
4585;SDS011;2305;50.118;8.952;2023-03-07T10:32:14;8.50;;;5.47;;
4585;SDS011;2305;50.118;8.952;2023-03-07T10:34:47;8.77;;;5.40;;
4585;SDS011;2305;50.118;8.952;2023-03-07T10:37:26;9.30;;;5.53;;
4585;SDS011;2305;50.118;8.952;2023-03-07T10:40:04;9.00;;;6.23;;
4585;SDS011;2305;50.118;8.952;2023-03-07T10:42:33;6.33;;;4.50;;
4585;SDS011;2305;50.118;8.952;2023-03-07T10:45:05;11.17;;;5.50;;
4585;SDS011;2305;50.118;8.952;2023-03-07T10:47:38;7.50;;;5.53;;
4585;SDS011;2305;50.118;8.952;2023-03-07T10:50:14;9.93;;;5.30;;
4585;SDS011;2305;50.118;8.952;2023-03-07T10:52:51;9.83;;;5.80;;
4585;SDS011;2305;50.118;8.952;2023-03-07T10:55:30;15.60;;;5.70;;
4585;SDS011;2305;50.118;8.952;2023-03-07T10:58:13;6.97;;;5.33;;
4585;SDS011;2305;50.118;8.952;2023-03-07T11:00:45;16.40;;;6.03;;
4585;SDS011;2305;50.118;8.952;2023-03-07T11:03:30;12.70;;;5.67;;
4585;SDS011;2305;50.118;8.952;2023-03-07T11:09:13;11.00;;;5.47;;
4585;SDS011;2305;50.118;8.952;2023-03-07T11:11:49;7.77;;;5.50;;
4585;SDS011;2305;50.118;8.952;2023-03-07T11:14:19;7.93;;;5.03;;
4585;SDS011;2305;50.118;8.952;2023-03-07T11:16:51;7.80;;;5.80;;
4585;SDS011;2305;50.118;8.952;2023-03-07T11:19:32;7.80;;;5.67;;
4585;SDS011;2305;50.118;8.952;2023-03-07T11:22:04;14.53;;;5.80;;
4585;SDS011;2305;50.118;8.952;2023-03-07T11:24:52;13.93;;;5.60;;
4585;SDS011;2305;50.118;8.952;2023-03-07T11:27:31;12.00;;;6.20;;
4585;SDS011;2305;50.118;8.952;2023-03-07T11:30:05;9.07;;;6.10;;
4585;SDS011;2305;50.118;8.952;2023-03-07T11:32:52;8.50;;;5.40;;
4585;SDS011;2305;50.118;8.952;2023-03-07T11:38:37;12.83;;;6.37;;
4585;SDS011;2305;50.118;8.952;2023-03-07T11:41:15;14.00;;;5.50;;
4585;SDS011;2305;50.118;8.952;2023-03-07T11:44:03;6.53;;;4.60;;
4585;SDS011;2305;50.118;8.952;2023-03-07T11:46:41;7.57;;;5.20;;
4585;SDS011;2305;50.118;8.952;2023-03-07T11:49:25;11.80;;;5.20;;
4585;SDS011;2305;50.118;8.952;2023-03-07T11:52:09;10.50;;;5.80;;
4585;SDS011;2305;50.118;8.952;2023-03-07T11:54:48;27.73;;;6.80;;
4585;SDS011;2305;50.118;8.952;2023-03-07T11:57:31;17.33;;;5.70;;
4585;SDS011;2305;50.118;8.952;2023-03-07T12:03:14;7.73;;;4.70;;
4585;SDS011;2305;50.118;8.952;2023-03-07T12:06:00;7.20;;;5.07;;
4585;SDS011;2305;50.118;8.952;2023-03-07T12:08:43;9.13;;;5.53;;
4585;SDS011;2305;50.118;8.952;2023-03-07T12:11:25;9.63;;;5.60;;
4585;SDS011;2305;50.118;8.952;2023-03-07T12:14:07;7.13;;;4.90;;
4585;SDS011;2305;50.118;8.952;2023-03-07T12:16:54;8.90;;;5.30;;
4585;SDS011;2305;50.118;8.952;2023-03-07T12:19:36;12.70;;;4.67;;
4585;SDS011;2305;50.118;8.952;2023-03-07T12:22:41;9.33;;;5.30;;
4585;SDS011;2305;50.118;8.952;2023-03-07T12:25:20;7.07;;;5.10;;
4585;SDS011;2305;50.118;8.952;2023-03-07T12:27:54;7.23;;;5.50;;
4585;SDS011;2305;50.118;8.952;2023-03-07T12:30:32;8.20;;;5.20;;
4585;SDS011;2305;50.118;8.952;2023-03-07T12:33:11;10.10;;;5.40;;
4585;SDS011;2305;50.118;8.952;2023-03-07T12:35:48;6.40;;;4.80;;
4585;SDS011;2305;50.118;8.952;2023-03-07T12:38:22;9.83;;;5.33;;
4585;SDS011;2305;50.118;8.952;2023-03-07T12:41:03;7.10;;;4.80;;
4585;SDS011;2305;50.118;8.952;2023-03-07T12:43:41;7.30;;;4.83;;
4585;SDS011;2305;50.118;8.952;2023-03-07T12:46:16;8.93;;;4.80;;
4585;SDS011;2305;50.118;8.952;2023-03-07T12:48:52;8.40;;;5.33;;
4585;SDS011;2305;50.118;8.952;2023-03-07T12:51:26;7.80;;;4.90;;
4585;SDS011;2305;50.118;8.952;2023-03-07T12:54:02;6.93;;;4.63;;
4585;SDS011;2305;50.118;8.952;2023-03-07T12:56:40;7.90;;;5.20;;
4585;SDS011;2305;50.118;8.952;2023-03-07T12:59:14;5.67;;;4.60;;
4585;SDS011;2305;50.118;8.952;2023-03-07T13:01:45;12.47;;;5.27;;
4585;SDS011;2305;50.118;8.952;2023-03-07T13:04:19;7.70;;;5.10;;
4585;SDS011;2305;50.118;8.952;2023-03-07T13:06:54;9.83;;;5.20;;
4585;SDS011;2305;50.118;8.952;2023-03-07T13:09:37;8.30;;;5.50;;
4585;SDS011;2305;50.118;8.952;2023-03-07T13:12:28;7.20;;;4.93;;
4585;SDS011;2305;50.118;8.952;2023-03-07T13:14:58;9.37;;;5.47;;
4585;SDS011;2305;50.118;8.952;2023-03-07T13:20:41;9.10;;;5.03;;
4585;SDS011;2305;50.118;8.952;2023-03-07T13:23:12;8.60;;;5.03;;
4585;SDS011;2305;50.118;8.952;2023-03-07T13:26:01;8.43;;;5.43;;
4585;SDS011;2305;50.118;8.952;2023-03-07T13:28:45;8.60;;;5.70;;
4585;SDS011;2305;50.118;8.952;2023-03-07T13:46:27;10.10;;;5.60;;
4585;SDS011;2305;50.118;8.952;2023-03-07T13:49:39;7.77;;;5.40;;
4585;SDS011;2305;50.118;8.952;2023-03-07T13:55:24;8.07;;;5.43;;
4585;SDS011;2305;50.118;8.952;2023-03-07T13:57:54;11.10;;;5.07;;
4585;SDS011;2305;50.118;8.952;2023-03-07T14:00:32;9.90;;;5.87;;
4585;SDS011;2305;50.118;8.952;2023-03-07T14:03:08;8.53;;;5.60;;
4585;SDS011;2305;50.118;8.952;2023-03-07T14:05:53;23.03;;;7.07;;
4585;SDS011;2305;50.118;8.952;2023-03-07T14:08:27;6.47;;;4.73;;
4585;SDS011;2305;50.118;8.952;2023-03-07T14:11:01;8.80;;;5.43;;
4585;SDS011;2305;50.118;8.952;2023-03-07T14:16:36;8.70;;;5.10;;
4585;SDS011;2305;50.118;8.952;2023-03-07T14:19:18;15.57;;;5.27;;
4585;SDS011;2305;50.118;8.952;2023-03-07T14:21:58;9.47;;;6.20;;
4585;SDS011;2305;50.118;8.952;2023-03-07T14:24:48;11.00;;;6.10;;
4585;SDS011;2305;50.118;8.952;2023-03-07T14:27:27;6.90;;;4.20;;
4585;SDS011;2305;50.118;8.952;2023-03-07T14:29:57;8.40;;;6.13;;
4585;SDS011;2305;50.118;8.952;2023-03-07T14:32:26;11.60;;;6.33;;
4585;SDS011;2305;50.118;8.952;2023-03-07T14:34:56;7.57;;;5.30;;
4585;SDS011;2305;50.118;8.952;2023-03-07T14:37:26;10.17;;;6.30;;
4585;SDS011;2305;50.118;8.952;2023-03-07T14:40:01;9.83;;;6.63;;
4585;SDS011;2305;50.118;8.952;2023-03-07T14:42:50;9.97;;;6.77;;
4585;SDS011;2305;50.118;8.952;2023-03-07T14:45:25;10.27;;;6.30;;
4585;SDS011;2305;50.118;8.952;2023-03-07T14:48:04;11.67;;;7.60;;
4585;SDS011;2305;50.118;8.952;2023-03-07T14:50:59;16.67;;;6.67;;
4585;SDS011;2305;50.118;8.952;2023-03-07T14:53:37;12.10;;;6.90;;
4585;SDS011;2305;50.118;8.952;2023-03-07T14:56:06;10.97;;;6.57;;
4585;SDS011;2305;50.118;8.952;2023-03-07T14:58:44;9.93;;;6.00;;
4585;SDS011;2305;50.118;8.952;2023-03-07T15:01:15;9.70;;;6.43;;
4585;SDS011;2305;50.118;8.952;2023-03-07T15:03:45;15.20;;;6.50;;
4585;SDS011;2305;50.118;8.952;2023-03-07T15:06:18;8.50;;;6.00;;
4585;SDS011;2305;50.118;8.952;2023-03-07T15:08:48;11.80;;;6.80;;
4585;SDS011;2305;50.118;8.952;2023-03-07T15:11:20;10.57;;;5.93;;
4585;SDS011;2305;50.118;8.952;2023-03-07T15:14:02;12.73;;;6.00;;
4585;SDS011;2305;50.118;8.952;2023-03-07T15:16:34;16.23;;;5.30;;
4585;SDS011;2305;50.118;8.952;2023-03-07T15:19:07;27.33;;;6.07;;
4585;SDS011;2305;50.118;8.952;2023-03-07T15:21:43;8.37;;;5.90;;
4585;SDS011;2305;50.118;8.952;2023-03-07T15:24:15;11.47;;;5.97;;
4585;SDS011;2305;50.118;8.952;2023-03-07T15:26:49;10.50;;;6.53;;
4585;SDS011;2305;50.118;8.952;2023-03-07T15:29:23;11.50;;;6.23;;
4585;SDS011;2305;50.118;8.952;2023-03-07T15:31:54;11.60;;;5.80;;
4585;SDS011;2305;50.118;8.952;2023-03-07T15:34:27;17.27;;;5.97;;
4585;SDS011;2305;50.118;8.952;2023-03-07T15:39:54;6.80;;;4.60;;
4585;SDS011;2305;50.118;8.952;2023-03-07T15:42:24;17.03;;;4.70;;
4585;SDS011;2305;50.118;8.952;2023-03-07T15:44:53;8.70;;;5.43;;
4585;SDS011;2305;50.118;8.952;2023-03-07T15:47:25;18.57;;;5.03;;
4585;SDS011;2305;50.118;8.952;2023-03-07T15:49:55;7.90;;;5.10;;
4585;SDS011;2305;50.118;8.952;2023-03-07T15:52:26;14.00;;;4.53;;
4585;SDS011;2305;50.118;8.952;2023-03-07T15:54:57;7.53;;;5.00;;
4585;SDS011;2305;50.118;8.952;2023-03-07T15:57:27;5.60;;;4.10;;
4585;SDS011;2305;50.118;8.952;2023-03-07T16:00:00;10.03;;;5.23;;
4585;SDS011;2305;50.118;8.952;2023-03-07T16:02:38;8.67;;;4.50;;
4585;SDS011;2305;50.118;8.952;2023-03-07T16:05:28;10.63;;;6.30;;
4585;SDS011;2305;50.118;8.952;2023-03-07T16:07:59;9.33;;;5.13;;
4585;SDS011;2305;50.118;8.952;2023-03-07T16:10:30;7.37;;;4.80;;
4585;SDS011;2305;50.118;8.952;2023-03-07T16:12:58;7.40;;;5.37;;
4585;SDS011;2305;50.118;8.952;2023-03-07T16:15:29;11.83;;;5.20;;